Airport Name : Lishe

Other Name : Ningbo

ICAO : ZSNB

IATA : NGB

FAA :

Latitude : 29.824944

Longitude : 121.465069

Country : China

Local Date and Time : 1/23/2018 12:10:00 AM

 

TAF (Terminal Aerodrome Forecast)

TAF ZSNB 221431Z 2218/2318 02004MPS 3500 BR BKN040 TX08/2306Z TN02/2222Z

 

METAR (METeorological Aerodrome Report)

ZSNB 221600Z VRB01MPS 5000 BR NSC 04/04 Q1022 NOSIG

ZSNB 221500Z 21001MPS 4000 BR NSC 04/04 Q1021 NOSIG

ZSNB 221400Z 00000MPS 4000 BR NSC 05/05 Q1021 NOSIG

ZSNB 221300Z 25001MPS 5000 BR NSC 05/05 Q1021 NOSIG